KMMH

Details ICAO KMMH (MMH)
Name Mammoth Yosemite
Region United States
Timezone America/Los_Angeles (UTC-7.0)
Plans Departing 48
Arriving 84
Stats Elevation 7,128 ft / 2,173 m (AMSL)
Location 37.624100° -118.839000°
Runways 1
Magnetic Variation 12.745° E
Sunrise 2018-10-23 14:12:31 UTC / 2018-10-23 07:12:31 Local
Sunset 2018-10-24 01:09:06 UTC / 2018-10-23 18:09:06 Local
Advertisement - Login to hide

Runways

ID Width Length Bearing (true/mag) Surface Threshold Overrun Markings Lighting
09 98 ft / 30 m 6,987 ft / 2,130 m 109.02° / 96.27° ASPHALT 0 ft / 0 m 2,999 ft / 914 m APP EDGE THRESHOLD
27 98 ft / 30 m 6,987 ft / 2,130 m 289.03° / 276.29° ASPHALT 0 ft / 0 m 0 ft / 0 m APP EDGE THRESHOLD REIL-OMNI

Map

Weather


0- 5 10 15 20 25 30 35+ Temperature / °C

Clouds and Precipitation
Forecast for 2018-10-24 00:00 UTC. Updated 4 hours ago

Ground ~20,000 ft ~40,000 ft Winds

METAR

KMMH 240115Z AUTO 29003KT 10SM CLR 11/M06 A3015 RMK AO2 T01131061

TAF

TAF KMMH 232320Z 2400/2424 11008KT P6SM SCT180 FM240100 31005KT P6SM SCT180 FM241800 16007KT P6SM SCT180

Frequencies

Recorded 118.05 MHz AWOS 3
Unicom 122.80 MHz CTAF/UNICOM
Warning: Do not use this data for real-world aviation or navigation. No guarantee of current accuracy is given.